sensor_id;sensor_type;location;lat;lon;timestamp;P1;durP1;ratioP1;P2;durP2;ratioP2
55762;SDS011;42162;51.958;5.426;2024-02-14T00:00:11;4.72;;;2.88;;
55762;SDS011;42162;51.958;5.426;2024-02-14T00:02:45;8.73;;;3.25;;
55762;SDS011;42162;51.958;5.426;2024-02-14T00:05:16;3.70;;;2.58;;
55762;SDS011;42162;51.958;5.426;2024-02-14T00:07:44;4.15;;;3.30;;
55762;SDS011;42162;51.958;5.426;2024-02-14T00:10:14;3.53;;;2.75;;
55762;SDS011;42162;51.958;5.426;2024-02-14T00:12:41;4.20;;;3.22;;
55762;SDS011;42162;51.958;5.426;2024-02-14T00:15:09;3.72;;;3.38;;
55762;SDS011;42162;51.958;5.426;2024-02-14T00:17:36;6.45;;;3.60;;
55762;SDS011;42162;51.958;5.426;2024-02-14T00:20:04;3.75;;;3.10;;
55762;SDS011;42162;51.958;5.426;2024-02-14T00:22:44;7.57;;;3.40;;
55762;SDS011;42162;51.958;5.426;2024-02-14T00:25:11;11.85;;;4.10;;
55762;SDS011;42162;51.958;5.426;2024-02-14T00:27:45;5.65;;;3.85;;
55762;SDS011;42162;51.958;5.426;2024-02-14T00:30:12;5.75;;;3.70;;
55762;SDS011;42162;51.958;5.426;2024-02-14T00:33:00;7.05;;;3.55;;
55762;SDS011;42162;51.958;5.426;2024-02-14T00:35:28;5.60;;;3.90;;
55762;SDS011;42162;51.958;5.426;2024-02-14T00:37:55;5.97;;;3.97;;
55762;SDS011;42162;51.958;5.426;2024-02-14T00:40:22;4.57;;;3.88;;
55762;SDS011;42162;51.958;5.426;2024-02-14T00:42:50;8.10;;;4.07;;
55762;SDS011;42162;51.958;5.426;2024-02-14T00:45:18;7.70;;;4.45;;
55762;SDS011;42162;51.958;5.426;2024-02-14T00:47:45;5.07;;;4.40;;
55762;SDS011;42162;51.958;5.426;2024-02-14T00:50:13;6.05;;;4.32;;
55762;SDS011;42162;51.958;5.426;2024-02-14T00:52:40;5.75;;;4.72;;
55762;SDS011;42162;51.958;5.426;2024-02-14T00:55:08;5.88;;;4.72;;
55762;SDS011;42162;51.958;5.426;2024-02-14T00:57:36;7.18;;;4.80;;
55762;SDS011;42162;51.958;5.426;2024-02-14T01:00:04;6.28;;;4.22;;
55762;SDS011;42162;51.958;5.426;2024-02-14T01:02:35;6.70;;;4.45;;
55762;SDS011;42162;51.958;5.426;2024-02-14T01:05:02;6.72;;;5.40;;
55762;SDS011;42162;51.958;5.426;2024-02-14T01:07:31;6.53;;;4.65;;
55762;SDS011;42162;51.958;5.426;2024-02-14T01:09:59;5.53;;;4.32;;
55762;SDS011;42162;51.958;5.426;2024-02-14T01:12:26;8.70;;;5.50;;
55762;SDS011;42162;51.958;5.426;2024-02-14T01:14:53;11.68;;;4.88;;
55762;SDS011;42162;51.958;5.426;2024-02-14T01:17:21;6.85;;;4.78;;
55762;SDS011;42162;51.958;5.426;2024-02-14T01:19:48;5.00;;;4.32;;
55762;SDS011;42162;51.958;5.426;2024-02-14T01:22:16;7.25;;;4.65;;
55762;SDS011;42162;51.958;5.426;2024-02-14T01:25:01;6.72;;;4.68;;
55762;SDS011;42162;51.958;5.426;2024-02-14T01:27:30;6.00;;;4.30;;
55762;SDS011;42162;51.958;5.426;2024-02-14T01:29:57;5.13;;;4.60;;
55762;SDS011;42162;51.958;5.426;2024-02-14T01:32:26;12.73;;;5.20;;
55762;SDS011;42162;51.958;5.426;2024-02-14T01:34:56;10.98;;;5.00;;
55762;SDS011;42162;51.958;5.426;2024-02-14T01:37:24;5.32;;;4.63;;
55762;SDS011;42162;51.958;5.426;2024-02-14T01:39:51;5.72;;;4.43;;
55762;SDS011;42162;51.958;5.426;2024-02-14T01:42:18;5.97;;;4.80;;
55762;SDS011;42162;51.958;5.426;2024-02-14T01:44:45;5.97;;;4.70;;
55762;SDS011;42162;51.958;5.426;2024-02-14T01:47:15;8.00;;;4.43;;
55762;SDS011;42162;51.958;5.426;2024-02-14T01:49:45;8.50;;;5.07;;
55762;SDS011;42162;51.958;5.426;2024-02-14T01:52:12;6.22;;;4.78;;
55762;SDS011;42162;51.958;5.426;2024-02-14T01:54:40;9.63;;;5.18;;
55762;SDS011;42162;51.958;5.426;2024-02-14T01:57:08;9.98;;;5.43;;
55762;SDS011;42162;51.958;5.426;2024-02-14T01:59:37;7.53;;;5.40;;
55762;SDS011;42162;51.958;5.426;2024-02-14T02:02:04;8.18;;;5.55;;
55762;SDS011;42162;51.958;5.426;2024-02-14T02:04:35;10.95;;;5.85;;
55762;SDS011;42162;51.958;5.426;2024-02-14T02:07:03;7.32;;;4.80;;
55762;SDS011;42162;51.958;5.426;2024-02-14T02:09:31;8.45;;;5.20;;
55762;SDS011;42162;51.958;5.426;2024-02-14T02:11:59;7.38;;;5.20;;
55762;SDS011;42162;51.958;5.426;2024-02-14T02:14:47;11.02;;;5.93;;
55762;SDS011;42162;51.958;5.426;2024-02-14T02:17:35;6.55;;;5.65;;
55762;SDS011;42162;51.958;5.426;2024-02-14T02:20:22;10.23;;;5.88;;
55762;SDS011;42162;51.958;5.426;2024-02-14T02:22:50;8.40;;;5.68;;
55762;SDS011;42162;51.958;5.426;2024-02-14T02:25:38;6.88;;;5.82;;
55762;SDS011;42162;51.958;5.426;2024-02-14T02:28:25;10.30;;;5.55;;
55762;SDS011;42162;51.958;5.426;2024-02-14T02:30:53;9.40;;;5.75;;
55762;SDS011;42162;51.958;5.426;2024-02-14T02:33:22;8.15;;;5.68;;
55762;SDS011;42162;51.958;5.426;2024-02-14T02:35:51;10.13;;;5.95;;
55762;SDS011;42162;51.958;5.426;2024-02-14T02:38:38;12.52;;;5.55;;
55762;SDS011;42162;51.958;5.426;2024-02-14T02:41:25;11.98;;;5.90;;
55762;SDS011;42162;51.958;5.426;2024-02-14T02:44:12;8.52;;;6.82;;
55762;SDS011;42162;51.958;5.426;2024-02-14T02:47:02;7.10;;;5.78;;
55762;SDS011;42162;51.958;5.426;2024-02-14T02:49:49;8.43;;;5.68;;
55762;SDS011;42162;51.958;5.426;2024-02-14T02:52:36;9.40;;;6.00;;
55762;SDS011;42162;51.958;5.426;2024-02-14T02:55:23;12.18;;;6.43;;
55762;SDS011;42162;51.958;5.426;2024-02-14T02:57:58;7.65;;;6.57;;
55762;SDS011;42162;51.958;5.426;2024-02-14T03:00:26;13.60;;;6.05;;
55762;SDS011;42162;51.958;5.426;2024-02-14T03:03:09;7.93;;;6.55;;
55762;SDS011;42162;51.958;5.426;2024-02-14T03:05:55;12.98;;;5.97;;
55762;SDS011;42162;51.958;5.426;2024-02-14T03:08:43;9.05;;;6.55;;
55762;SDS011;42162;51.958;5.426;2024-02-14T03:11:30;11.48;;;7.65;;
55762;SDS011;42162;51.958;5.426;2024-02-14T03:14:17;9.50;;;7.22;;
55762;SDS011;42162;51.958;5.426;2024-02-14T03:17:07;12.45;;;7.13;;
55762;SDS011;42162;51.958;5.426;2024-02-14T03:19:35;9.32;;;7.45;;
55762;SDS011;42162;51.958;5.426;2024-02-14T03:22:06;8.20;;;6.38;;
55762;SDS011;42162;51.958;5.426;2024-02-14T03:24:36;12.68;;;7.97;;
55762;SDS011;42162;51.958;5.426;2024-02-14T03:27:06;12.55;;;8.18;;
55762;SDS011;42162;51.958;5.426;2024-02-14T03:29:33;11.95;;;8.70;;
55762;SDS011;42162;51.958;5.426;2024-02-14T03:32:02;13.45;;;8.18;;
55762;SDS011;42162;51.958;5.426;2024-02-14T03:34:31;12.55;;;7.75;;
55762;SDS011;42162;51.958;5.426;2024-02-14T03:37:03;13.50;;;8.35;;
55762;SDS011;42162;51.958;5.426;2024-02-14T03:39:31;17.15;;;8.30;;
55762;SDS011;42162;51.958;5.426;2024-02-14T03:41:58;14.65;;;8.63;;
55762;SDS011;42162;51.958;5.426;2024-02-14T03:44:29;11.10;;;8.70;;
55762;SDS011;42162;51.958;5.426;2024-02-14T03:46:57;13.93;;;8.57;;
55762;SDS011;42162;51.958;5.426;2024-02-14T03:49:25;11.07;;;8.77;;
55762;SDS011;42162;51.958;5.426;2024-02-14T03:51:52;14.23;;;9.70;;
55762;SDS011;42162;51.958;5.426;2024-02-14T03:54:24;11.05;;;8.82;;
55762;SDS011;42162;51.958;5.426;2024-02-14T03:56:51;16.15;;;9.93;;
55762;SDS011;42162;51.958;5.426;2024-02-14T03:59:19;14.65;;;9.55;;
55762;SDS011;42162;51.958;5.426;2024-02-14T04:01:52;13.50;;;9.05;;
55762;SDS011;42162;51.958;5.426;2024-02-14T04:04:20;14.38;;;8.95;;
55762;SDS011;42162;51.958;5.426;2024-02-14T04:06:50;16.27;;;10.20;;
55762;SDS011;42162;51.958;5.426;2024-02-14T04:09:17;12.75;;;9.68;;
55762;SDS011;42162;51.958;5.426;2024-02-14T04:11:45;10.93;;;8.70;;
55762;SDS011;42162;51.958;5.426;2024-02-14T04:14:12;12.27;;;8.38;;
55762;SDS011;42162;51.958;5.426;2024-02-14T04:16:39;14.15;;;9.25;;
55762;SDS011;42162;51.958;5.426;2024-02-14T04:19:07;22.35;;;9.10;;
55762;SDS011;42162;51.958;5.426;2024-02-14T04:21:35;14.30;;;9.50;;
55762;SDS011;42162;51.958;5.426;2024-02-14T04:24:04;10.23;;;8.63;;
55762;SDS011;42162;51.958;5.426;2024-02-14T04:26:31;12.65;;;8.85;;
55762;SDS011;42162;51.958;5.426;2024-02-14T04:28:59;13.32;;;10.05;;
55762;SDS011;42162;51.958;5.426;2024-02-14T04:31:26;16.17;;;9.02;;
55762;SDS011;42162;51.958;5.426;2024-02-14T04:34:02;12.93;;;10.80;;
55762;SDS011;42162;51.958;5.426;2024-02-14T04:36:29;11.40;;;9.77;;
55762;SDS011;42162;51.958;5.426;2024-02-14T04:38:57;19.52;;;10.93;;
55762;SDS011;42162;51.958;5.426;2024-02-14T04:41:24;17.33;;;10.23;;
55762;SDS011;42162;51.958;5.426;2024-02-14T04:43:51;15.82;;;11.38;;
55762;SDS011;42162;51.958;5.426;2024-02-14T04:46:18;16.48;;;11.07;;
55762;SDS011;42162;51.958;5.426;2024-02-14T04:48:45;18.42;;;10.10;;
55762;SDS011;42162;51.958;5.426;2024-02-14T04:51:13;12.70;;;9.98;;
55762;SDS011;42162;51.958;5.426;2024-02-14T04:53:40;12.88;;;10.35;;
55762;SDS011;42162;51.958;5.426;2024-02-14T04:56:07;15.57;;;11.35;;
55762;SDS011;42162;51.958;5.426;2024-02-14T04:58:34;14.73;;;10.32;;
55762;SDS011;42162;51.958;5.426;2024-02-14T05:01:03;13.70;;;11.57;;
55762;SDS011;42162;51.958;5.426;2024-02-14T05:03:30;13.02;;;9.30;;
55762;SDS011;42162;51.958;5.426;2024-02-14T05:05:59;18.90;;;11.90;;
55762;SDS011;42162;51.958;5.426;2024-02-14T05:08:30;15.73;;;12.00;;
55762;SDS011;42162;51.958;5.426;2024-02-14T05:10:57;19.27;;;12.85;;
55762;SDS011;42162;51.958;5.426;2024-02-14T05:13:24;19.73;;;10.98;;
55762;SDS011;42162;51.958;5.426;2024-02-14T05:15:51;14.07;;;11.65;;
55762;SDS011;42162;51.958;5.426;2024-02-14T05:18:18;14.90;;;11.90;;
55762;SDS011;42162;51.958;5.426;2024-02-14T05:20:46;17.00;;;11.43;;
55762;SDS011;42162;51.958;5.426;2024-02-14T05:23:13;17.17;;;12.20;;
55762;SDS011;42162;51.958;5.426;2024-02-14T05:25:40;15.77;;;12.38;;
55762;SDS011;42162;51.958;5.426;2024-02-14T05:28:07;13.35;;;11.57;;
55762;SDS011;42162;51.958;5.426;2024-02-14T05:30:43;13.82;;;11.90;;
55762;SDS011;42162;51.958;5.426;2024-02-14T05:33:20;13.20;;;11.55;;
55762;SDS011;42162;51.958;5.426;2024-02-14T05:35:49;14.65;;;10.65;;
55762;SDS011;42162;51.958;5.426;2024-02-14T05:38:16;15.73;;;11.00;;
55762;SDS011;42162;51.958;5.426;2024-02-14T05:40:46;12.70;;;10.00;;
55762;SDS011;42162;51.958;5.426;2024-02-14T05:43:14;12.23;;;10.95;;
55762;SDS011;42162;51.958;5.426;2024-02-14T05:45:42;14.55;;;11.70;;
55762;SDS011;42162;51.958;5.426;2024-02-14T05:48:09;20.30;;;12.52;;
55762;SDS011;42162;51.958;5.426;2024-02-14T05:50:39;16.67;;;12.13;;
55762;SDS011;42162;51.958;5.426;2024-02-14T05:53:07;12.52;;;10.82;;
55762;SDS011;42162;51.958;5.426;2024-02-14T05:55:34;13.93;;;10.77;;
55762;SDS011;42162;51.958;5.426;2024-02-14T05:58:01;20.08;;;12.18;;
55762;SDS011;42162;51.958;5.426;2024-02-14T06:00:29;17.98;;;12.95;;
55762;SDS011;42162;51.958;5.426;2024-02-14T06:02:56;18.45;;;12.40;;
55762;SDS011;42162;51.958;5.426;2024-02-14T06:05:24;14.10;;;12.55;;
55762;SDS011;42162;51.958;5.426;2024-02-14T06:07:51;12.98;;;11.60;;
55762;SDS011;42162;51.958;5.426;2024-02-14T06:10:18;17.08;;;12.95;;
55762;SDS011;42162;51.958;5.426;2024-02-14T06:12:46;17.65;;;12.05;;
55762;SDS011;42162;51.958;5.426;2024-02-14T06:15:14;16.10;;;13.40;;
55762;SDS011;42162;51.958;5.426;2024-02-14T06:17:42;14.82;;;12.77;;
55762;SDS011;42162;51.958;5.426;2024-02-14T06:20:09;14.43;;;12.93;;
55762;SDS011;42162;51.958;5.426;2024-02-14T06:22:37;14.65;;;12.68;;
55762;SDS011;42162;51.958;5.426;2024-02-14T06:25:16;14.48;;;12.93;;
55762;SDS011;42162;51.958;5.426;2024-02-14T06:27:54;14.18;;;11.82;;
55762;SDS011;42162;51.958;5.426;2024-02-14T06:30:21;14.90;;;13.40;;
55762;SDS011;42162;51.958;5.426;2024-02-14T06:32:48;14.25;;;12.68;;
55762;SDS011;42162;51.958;5.426;2024-02-14T06:35:16;13.77;;;12.38;;
55762;SDS011;42162;51.958;5.426;2024-02-14T06:37:46;14.88;;;13.30;;
55762;SDS011;42162;51.958;5.426;2024-02-14T06:40:28;15.33;;;12.90;;
55762;SDS011;42162;51.958;5.426;2024-02-14T06:42:56;16.17;;;13.23;;
55762;SDS011;42162;51.958;5.426;2024-02-14T06:45:25;14.70;;;12.05;;
55762;SDS011;42162;51.958;5.426;2024-02-14T06:48:03;14.00;;;11.55;;
55762;SDS011;42162;51.958;5.426;2024-02-14T06:50:31;14.95;;;11.65;;
55762;SDS011;42162;51.958;5.426;2024-02-14T06:52:58;14.65;;;11.70;;
55762;SDS011;42162;51.958;5.426;2024-02-14T06:55:27;17.17;;;12.48;;
55762;SDS011;42162;51.958;5.426;2024-02-14T06:57:55;13.98;;;12.38;;
55762;SDS011;42162;51.958;5.426;2024-02-14T07:00:23;14.27;;;12.82;;
55762;SDS011;42162;51.958;5.426;2024-02-14T07:02:51;12.65;;;11.27;;
55762;SDS011;42162;51.958;5.426;2024-02-14T07:05:18;17.63;;;12.20;;
55762;SDS011;42162;51.958;5.426;2024-02-14T07:07:45;15.32;;;12.23;;
55762;SDS011;42162;51.958;5.426;2024-02-14T07:10:12;18.00;;;13.05;;
55762;SDS011;42162;51.958;5.426;2024-02-14T07:12:39;20.58;;;14.75;;
55762;SDS011;42162;51.958;5.426;2024-02-14T07:15:07;17.75;;;13.18;;
55762;SDS011;42162;51.958;5.426;2024-02-14T07:17:35;15.85;;;12.80;;
55762;SDS011;42162;51.958;5.426;2024-02-14T07:20:03;13.77;;;11.75;;
55762;SDS011;42162;51.958;5.426;2024-02-14T07:22:31;17.00;;;14.20;;
55762;SDS011;42162;51.958;5.426;2024-02-14T07:24:58;16.15;;;13.55;;
55762;SDS011;42162;51.958;5.426;2024-02-14T07:27:26;17.77;;;12.85;;
55762;SDS011;42162;51.958;5.426;2024-02-14T07:29:53;17.20;;;13.55;;
55762;SDS011;42162;51.958;5.426;2024-02-14T07:32:21;16.42;;;13.98;;
55762;SDS011;42162;51.958;5.426;2024-02-14T07:34:48;20.60;;;14.90;;
55762;SDS011;42162;51.958;5.426;2024-02-14T07:37:16;14.93;;;12.77;;
55762;SDS011;42162;51.958;5.426;2024-02-14T07:39:49;21.80;;;12.70;;
55762;SDS011;42162;51.958;5.426;2024-02-14T07:42:17;17.50;;;15.20;;
55762;SDS011;42162;51.958;5.426;2024-02-14T07:44:47;19.52;;;14.57;;
55762;SDS011;42162;51.958;5.426;2024-02-14T07:47:15;17.83;;;14.52;;
55762;SDS011;42162;51.958;5.426;2024-02-14T07:49:42;17.75;;;12.80;;
55762;SDS011;42162;51.958;5.426;2024-02-14T07:52:09;16.92;;;14.18;;
55762;SDS011;42162;51.958;5.426;2024-02-14T07:54:36;18.40;;;14.52;;
55762;SDS011;42162;51.958;5.426;2024-02-14T07:57:04;19.67;;;14.05;;
55762;SDS011;42162;51.958;5.426;2024-02-14T07:59:31;15.43;;;13.82;;
55762;SDS011;42162;51.958;5.426;2024-02-14T08:01:58;14.15;;;12.10;;
55762;SDS011;42162;51.958;5.426;2024-02-14T08:04:25;14.20;;;12.68;;
55762;SDS011;42162;51.958;5.426;2024-02-14T08:06:52;15.65;;;13.52;;
55762;SDS011;42162;51.958;5.426;2024-02-14T08:09:20;14.68;;;11.95;;
55762;SDS011;42162;51.958;5.426;2024-02-14T08:11:47;17.77;;;13.80;;
55762;SDS011;42162;51.958;5.426;2024-02-14T08:14:14;15.85;;;13.15;;
55762;SDS011;42162;51.958;5.426;2024-02-14T08:16:41;15.57;;;13.02;;
55762;SDS011;42162;51.958;5.426;2024-02-14T08:19:09;18.67;;;13.55;;
55762;SDS011;42162;51.958;5.426;2024-02-14T08:21:36;14.85;;;12.00;;
55762;SDS011;42162;51.958;5.426;2024-02-14T08:24:03;18.73;;;13.93;;
55762;SDS011;42162;51.958;5.426;2024-02-14T08:26:32;19.27;;;14.30;;
55762;SDS011;42162;51.958;5.426;2024-02-14T08:28:59;20.15;;;14.27;;
55762;SDS011;42162;51.958;5.426;2024-02-14T08:31:27;18.00;;;14.68;;
55762;SDS011;42162;51.958;5.426;2024-02-14T08:33:54;17.83;;;13.77;;
55762;SDS011;42162;51.958;5.426;2024-02-14T08:36:22;21.23;;;13.50;;
55762;SDS011;42162;51.958;5.426;2024-02-14T08:38:49;15.73;;;14.18;;
55762;SDS011;42162;51.958;5.426;2024-02-14T08:41:16;15.25;;;13.65;;
55762;SDS011;42162;51.958;5.426;2024-02-14T08:43:45;16.08;;;13.23;;
55762;SDS011;42162;51.958;5.426;2024-02-14T08:46:13;15.75;;;12.88;;
55762;SDS011;42162;51.958;5.426;2024-02-14T08:48:44;14.98;;;11.60;;
55762;SDS011;42162;51.958;5.426;2024-02-14T08:51:15;19.27;;;12.48;;
55762;SDS011;42162;51.958;5.426;2024-02-14T08:53:44;13.65;;;11.40;;
55762;SDS011;42162;51.958;5.426;2024-02-14T08:56:12;15.68;;;12.05;;
55762;SDS011;42162;51.958;5.426;2024-02-14T08:58:41;16.13;;;11.73;;
55762;SDS011;42162;51.958;5.426;2024-02-14T09:01:08;14.05;;;10.85;;
55762;SDS011;42162;51.958;5.426;2024-02-14T09:03:43;11.82;;;10.18;;
55762;SDS011;42162;51.958;5.426;2024-02-14T09:06:16;16.38;;;10.57;;
55762;SDS011;42162;51.958;5.426;2024-02-14T09:08:45;11.45;;;9.40;;
55762;SDS011;42162;51.958;5.426;2024-02-14T09:11:13;14.68;;;9.38;;
55762;SDS011;42162;51.958;5.426;2024-02-14T09:13:40;11.52;;;8.32;;
55762;SDS011;42162;51.958;5.426;2024-02-14T09:16:08;15.60;;;8.80;;
55762;SDS011;42162;51.958;5.426;2024-02-14T09:18:36;10.63;;;8.15;;
55762;SDS011;42162;51.958;5.426;2024-02-14T09:21:04;11.45;;;10.18;;
55762;SDS011;42162;51.958;5.426;2024-02-14T09:23:33;13.77;;;10.63;;
55762;SDS011;42162;51.958;5.426;2024-02-14T09:26:01;12.98;;;11.02;;
55762;SDS011;42162;51.958;5.426;2024-02-14T09:28:29;16.92;;;11.07;;
55762;SDS011;42162;51.958;5.426;2024-02-14T09:31:00;15.02;;;11.63;;
55762;SDS011;42162;51.958;5.426;2024-02-14T09:33:28;25.60;;;12.27;;
55762;SDS011;42162;51.958;5.426;2024-02-14T09:35:55;15.68;;;11.90;;
55762;SDS011;42162;51.958;5.426;2024-02-14T09:38:23;13.75;;;10.57;;
55762;SDS011;42162;51.958;5.426;2024-02-14T09:40:50;18.63;;;13.27;;
55762;SDS011;42162;51.958;5.426;2024-02-14T09:43:38;19.25;;;12.38;;
55762;SDS011;42162;51.958;5.426;2024-02-14T09:46:07;18.73;;;12.10;;
55762;SDS011;42162;51.958;5.426;2024-02-14T09:48:35;16.52;;;10.77;;
55762;SDS011;42162;51.958;5.426;2024-02-14T09:51:05;13.77;;;11.25;;
55762;SDS011;42162;51.958;5.426;2024-02-14T09:53:34;22.15;;;10.52;;
55762;SDS011;42162;51.958;5.426;2024-02-14T09:56:02;13.05;;;9.38;;
55762;SDS011;42162;51.958;5.426;2024-02-14T09:58:29;11.88;;;9.77;;
55762;SDS011;42162;51.958;5.426;2024-02-14T10:00:58;12.48;;;9.85;;
55762;SDS011;42162;51.958;5.426;2024-02-14T10:03:26;15.30;;;11.02;;
55762;SDS011;42162;51.958;5.426;2024-02-14T10:05:53;12.07;;;10.00;;
55762;SDS011;42162;51.958;5.426;2024-02-14T10:08:22;15.45;;;10.90;;
55762;SDS011;42162;51.958;5.426;2024-02-14T10:10:49;18.77;;;10.80;;
55762;SDS011;42162;51.958;5.426;2024-02-14T10:13:19;16.27;;;11.00;;
55762;SDS011;42162;51.958;5.426;2024-02-14T10:15:46;15.52;;;10.85;;
55762;SDS011;42162;51.958;5.426;2024-02-14T10:18:14;16.63;;;10.70;;
55762;SDS011;42162;51.958;5.426;2024-02-14T10:20:52;11.65;;;9.13;;
55762;SDS011;42162;51.958;5.426;2024-02-14T10:23:23;13.90;;;11.18;;
55762;SDS011;42162;51.958;5.426;2024-02-14T10:25:54;17.33;;;10.77;;
55762;SDS011;42162;51.958;5.426;2024-02-14T10:28:23;16.58;;;10.82;;
55762;SDS011;42162;51.958;5.426;2024-02-14T10:31:02;15.00;;;11.80;;
55762;SDS011;42162;51.958;5.426;2024-02-14T10:33:32;15.05;;;10.50;;
55762;SDS011;42162;51.958;5.426;2024-02-14T10:36:00;12.35;;;9.20;;
55762;SDS011;42162;51.958;5.426;2024-02-14T10:38:30;11.75;;;8.50;;
55762;SDS011;42162;51.958;5.426;2024-02-14T10:41:02;12.10;;;9.25;;
55762;SDS011;42162;51.958;5.426;2024-02-14T10:43:32;9.70;;;8.32;;
55762;SDS011;42162;51.958;5.426;2024-02-14T10:46:02;13.00;;;8.00;;
55762;SDS011;42162;51.958;5.426;2024-02-14T10:48:34;9.55;;;7.07;;
55762;SDS011;42162;51.958;5.426;2024-02-14T10:51:06;9.27;;;7.43;;
55762;SDS011;42162;51.958;5.426;2024-02-14T10:53:37;13.02;;;7.63;;
55762;SDS011;42162;51.958;5.426;2024-02-14T10:56:09;10.93;;;6.78;;
55762;SDS011;42162;51.958;5.426;2024-02-14T10:58:36;9.35;;;7.90;;
55762;SDS011;42162;51.958;5.426;2024-02-14T11:01:04;8.00;;;6.55;;
55762;SDS011;42162;51.958;5.426;2024-02-14T11:03:34;10.18;;;7.47;;
55762;SDS011;42162;51.958;5.426;2024-02-14T11:06:02;10.68;;;7.93;;
55762;SDS011;42162;51.958;5.426;2024-02-14T11:08:31;10.23;;;8.05;;
55762;SDS011;42162;51.958;5.426;2024-02-14T11:11:00;12.52;;;9.07;;
55762;SDS011;42162;51.958;5.426;2024-02-14T11:13:28;12.88;;;7.93;;
55762;SDS011;42162;51.958;5.426;2024-02-14T11:16:02;9.07;;;7.28;;
55762;SDS011;42162;51.958;5.426;2024-02-14T11:18:31;11.07;;;8.18;;
55762;SDS011;42162;51.958;5.426;2024-02-14T11:21:04;11.80;;;7.72;;
55762;SDS011;42162;51.958;5.426;2024-02-14T11:23:52;12.18;;;6.32;;
55762;SDS011;42162;51.958;5.426;2024-02-14T11:26:20;10.23;;;6.60;;
55762;SDS011;42162;51.958;5.426;2024-02-14T11:28:50;10.02;;;6.15;;
55762;SDS011;42162;51.958;5.426;2024-02-14T11:31:34;11.00;;;6.07;;
55762;SDS011;42162;51.958;5.426;2024-02-14T11:34:04;6.65;;;5.00;;
55762;SDS011;42162;51.958;5.426;2024-02-14T11:36:32;6.03;;;4.82;;
55762;SDS011;42162;51.958;5.426;2024-02-14T11:39:02;8.98;;;5.68;;
55762;SDS011;42162;51.958;5.426;2024-02-14T11:41:33;7.80;;;5.18;;
55762;SDS011;42162;51.958;5.426;2024-02-14T11:44:04;10.07;;;5.55;;
55762;SDS011;42162;51.958;5.426;2024-02-14T11:46:35;6.60;;;4.95;;
55762;SDS011;42162;51.958;5.426;2024-02-14T11:49:04;6.38;;;4.40;;
55762;SDS011;42162;51.958;5.426;2024-02-14T11:51:33;8.02;;;4.40;;
55762;SDS011;42162;51.958;5.426;2024-02-14T11:54:02;6.25;;;4.45;;
55762;SDS011;42162;51.958;5.426;2024-02-14T11:56:37;6.97;;;5.25;;
55762;SDS011;42162;51.958;5.426;2024-02-14T11:59:06;5.82;;;4.57;;
55762;SDS011;42162;51.958;5.426;2024-02-14T12:01:37;7.88;;;4.65;;
55762;SDS011;42162;51.958;5.426;2024-02-14T12:04:06;6.15;;;5.38;;
55762;SDS011;42162;51.958;5.426;2024-02-14T12:06:36;8.30;;;5.00;;
55762;SDS011;42162;51.958;5.426;2024-02-14T12:09:05;7.70;;;5.15;;
55762;SDS011;42162;51.958;5.426;2024-02-14T12:11:39;7.72;;;5.45;;
55762;SDS011;42162;51.958;5.426;2024-02-14T12:14:09;6.22;;;4.50;;
55762;SDS011;42162;51.958;5.426;2024-02-14T12:16:37;6.65;;;4.97;;
55762;SDS011;42162;51.958;5.426;2024-02-14T12:19:08;5.28;;;4.63;;
55762;SDS011;42162;51.958;5.426;2024-02-14T12:21:38;4.57;;;4.15;;
55762;SDS011;42162;51.958;5.426;2024-02-14T12:24:09;6.15;;;4.35;;
55762;SDS011;42162;51.958;5.426;2024-02-14T12:26:37;5.38;;;4.55;;
55762;SDS011;42162;51.958;5.426;2024-02-14T12:29:05;6.60;;;4.40;;
55762;SDS011;42162;51.958;5.426;2024-02-14T12:31:37;10.18;;;4.82;;
55762;SDS011;42162;51.958;5.426;2024-02-14T12:34:04;4.40;;;3.70;;
55762;SDS011;42162;51.958;5.426;2024-02-14T12:36:33;5.70;;;4.25;;
55762;SDS011;42162;51.958;5.426;2024-02-14T12:39:01;9.90;;;3.90;;
55762;SDS011;42162;51.958;5.426;2024-02-14T12:41:30;8.38;;;4.32;;
55762;SDS011;42162;51.958;5.426;2024-02-14T12:43:58;5.60;;;4.03;;
55762;SDS011;42162;51.958;5.426;2024-02-14T12:46:27;4.40;;;3.22;;
55762;SDS011;42162;51.958;5.426;2024-02-14T12:48:54;4.00;;;3.67;;
55762;SDS011;42162;51.958;5.426;2024-02-14T12:51:22;5.35;;;3.78;;
55762;SDS011;42162;51.958;5.426;2024-02-14T12:53:49;4.03;;;3.63;;
55762;SDS011;42162;51.958;5.426;2024-02-14T12:56:16;4.32;;;3.83;;
55762;SDS011;42162;51.958;5.426;2024-02-14T12:58:43;6.68;;;4.25;;
55762;SDS011;42162;51.958;5.426;2024-02-14T13:01:13;4.95;;;3.63;;
55762;SDS011;42162;51.958;5.426;2024-02-14T13:03:41;3.88;;;3.47;;
55762;SDS011;42162;51.958;5.426;2024-02-14T13:06:09;4.50;;;3.70;;
55762;SDS011;42162;51.958;5.426;2024-02-14T13:08:36;4.30;;;3.42;;
55762;SDS011;42162;51.958;5.426;2024-02-14T13:11:05;4.45;;;3.05;;
55762;SDS011;42162;51.958;5.426;2024-02-14T13:13:35;4.57;;;4.05;;
55762;SDS011;42162;51.958;5.426;2024-02-14T13:16:03;3.97;;;3.10;;
55762;SDS011;42162;51.958;5.426;2024-02-14T13:18:33;4.45;;;3.35;;
55762;SDS011;42162;51.958;5.426;2024-02-14T13:21:02;5.00;;;3.42;;
55762;SDS011;42162;51.958;5.426;2024-02-14T13:23:30;5.55;;;4.13;;
55762;SDS011;42162;51.958;5.426;2024-02-14T13:25:57;4.68;;;3.80;;
55762;SDS011;42162;51.958;5.426;2024-02-14T13:28:25;6.68;;;4.03;;
55762;SDS011;42162;51.958;5.426;2024-02-14T13:30:52;7.43;;;4.57;;
55762;SDS011;42162;51.958;5.426;2024-02-14T13:33:22;5.80;;;4.25;;
55762;SDS011;42162;51.958;5.426;2024-02-14T13:35:50;6.55;;;4.70;;
55762;SDS011;42162;51.958;5.426;2024-02-14T13:38:18;5.53;;;4.53;;
55762;SDS011;42162;51.958;5.426;2024-02-14T13:40:45;5.32;;;4.38;;
55762;SDS011;42162;51.958;5.426;2024-02-14T13:43:12;7.32;;;4.78;;
55762;SDS011;42162;51.958;5.426;2024-02-14T13:45:44;7.35;;;4.82;;
55762;SDS011;42162;51.958;5.426;2024-02-14T13:48:13;5.30;;;4.30;;
55762;SDS011;42162;51.958;5.426;2024-02-14T13:50:40;8.30;;;5.82;;
55762;SDS011;42162;51.958;5.426;2024-02-14T13:53:10;7.30;;;5.35;;
55762;SDS011;42162;51.958;5.426;2024-02-14T13:55:37;5.88;;;5.20;;
55762;SDS011;42162;51.958;5.426;2024-02-14T13:58:05;9.65;;;6.00;;
55762;SDS011;42162;51.958;5.426;2024-02-14T14:00:33;7.10;;;5.82;;
55762;SDS011;42162;51.958;5.426;2024-02-14T14:03:00;11.75;;;6.63;;
55762;SDS011;42162;51.958;5.426;2024-02-14T14:05:27;8.32;;;6.65;;
55762;SDS011;42162;51.958;5.426;2024-02-14T14:07:54;9.73;;;6.57;;
55762;SDS011;42162;51.958;5.426;2024-02-14T14:10:25;7.45;;;6.70;;
55762;SDS011;42162;51.958;5.426;2024-02-14T14:12:55;9.35;;;7.00;;
55762;SDS011;42162;51.958;5.426;2024-02-14T14:15:23;8.65;;;7.80;;
55762;SDS011;42162;51.958;5.426;2024-02-14T14:17:51;7.38;;;6.65;;
55762;SDS011;42162;51.958;5.426;2024-02-14T14:20:19;8.23;;;7.43;;
55762;SDS011;42162;51.958;5.426;2024-02-14T14:22:47;10.55;;;9.45;;
55762;SDS011;42162;51.958;5.426;2024-02-14T14:25:14;8.35;;;7.53;;
55762;SDS011;42162;51.958;5.426;2024-02-14T14:27:42;11.85;;;7.65;;
55762;SDS011;42162;51.958;5.426;2024-02-14T14:30:10;12.02;;;7.68;;
55762;SDS011;42162;51.958;5.426;2024-02-14T14:32:38;9.95;;;7.45;;
55762;SDS011;42162;51.958;5.426;2024-02-14T14:35:07;10.07;;;7.55;;
55762;SDS011;42162;51.958;5.426;2024-02-14T14:37:38;7.75;;;6.63;;
55762;SDS011;42162;51.958;5.426;2024-02-14T14:40:05;10.15;;;8.02;;
55762;SDS011;42162;51.958;5.426;2024-02-14T14:42:35;11.35;;;8.10;;
55762;SDS011;42162;51.958;5.426;2024-02-14T14:45:03;8.32;;;7.53;;
55762;SDS011;42162;51.958;5.426;2024-02-14T14:47:32;9.27;;;8.30;;
55762;SDS011;42162;51.958;5.426;2024-02-14T14:50:00;7.55;;;6.85;;